Time;durP1;ratioP1;P1;durP2;ratioP2;P2;SDS_P1;SDS_P2;PMS_P1;PMS_P2;Temp;Humidity;BMP_temperature;BMP_pressure;BME280_temperature;BME280_humidity;BME280_pressure;Samples;Min_cycle;Max_cycle;Signal;HPM_P1;HPM_P2
2021/11/23 00:01:40;;;;;;;12.15;5.40;;;;;;;;;;10294253;28;20951;-81
2021/11/23 00:06:40;;;;;;;8.70;5.13;;;;;;;;;;10293987;28;20042;-81
2021/11/23 00:11:40;;;;;;;7.67;4.60;;;;;;;;;;10294031;28;20485;-81
2021/11/23 00:16:41;;;;;;;7.53;4.97;;;;;;;;;;10293006;28;20031;-82
2021/11/23 00:21:41;;;;;;;10.10;5.30;;;;;;;;;;10294245;28;20819;-82
2021/11/23 00:26:42;;;;;;;8.10;5.00;;;;;;;;;;10292978;28;20110;-82
2021/11/23 00:31:42;;;;;;;10.13;5.20;;;;;;;;;;10334173;23;20496;-80
2021/11/23 00:36:42;;;;;;;9.95;5.22;;;;;;;;;;10293020;28;20982;-80
2021/11/23 00:41:49;;;;;;;8.07;4.70;;;;;;;;;;10293046;28;20046;-80
2021/11/23 00:46:50;;;;;;;8.20;5.20;;;;;;;;;;10292515;28;20429;-80
2021/11/23 00:51:50;;;;;;;6.10;4.35;;;;;;;;;;10293125;28;20038;-80
2021/11/23 00:56:51;;;;;;;8.50;4.38;;;;;;;;;;10292454;28;20030;-81
2021/11/23 01:01:51;;;;;;;7.63;4.75;;;;;;;;;;10292934;28;20424;-81
2021/11/23 01:06:51;;;;;;;6.00;4.17;;;;;;;;;;10293340;28;20097;-80
2021/11/23 01:11:52;;;;;;;7.07;4.77;;;;;;;;;;10292361;28;20484;-80
2021/11/23 01:16:52;;;;;;;6.75;4.55;;;;;;;;;;10292622;28;20480;-80
2021/11/23 01:21:53;;;;;;;7.30;4.47;;;;;;;;;;10292534;28;20035;-79
2021/11/23 01:26:53;;;;;;;6.33;4.60;;;;;;;;;;10291781;28;20445;-79
2021/11/23 01:31:53;;;;;;;8.07;4.73;;;;;;;;;;10318679;28;20511;-79
2021/11/23 01:36:54;;;;;;;6.67;4.13;;;;;;;;;;10322983;28;20449;-79
2021/11/23 01:41:55;;;;;;;5.53;4.07;;;;;;;;;;10311284;28;20974;-80
2021/11/23 01:46:55;;;;;;;9.00;4.13;;;;;;;;;;10298837;28;20513;-80
2021/11/23 01:51:56;;;;;;;6.45;4.55;;;;;;;;;;10335464;28;20456;-80
2021/11/23 01:56:56;;;;;;;6.03;3.92;;;;;;;;;;10338655;28;20038;-80
2021/11/23 02:01:56;;;;;;;6.77;4.20;;;;;;;;;;10325683;28;20048;-79
2021/11/23 02:06:57;;;;;;;6.93;4.13;;;;;;;;;;10339272;28;20444;-79
2021/11/23 02:11:58;;;;;;;6.30;3.80;;;;;;;;;;10314284;28;20540;-80
2021/11/23 02:16:59;;;;;;;5.43;3.95;;;;;;;;;;10319901;28;20455;-79
2021/11/23 02:21:59;;;;;;;5.43;3.70;;;;;;;;;;10330324;28;20117;-80
2021/11/23 02:27:01;;;;;;;6.13;3.97;;;;;;;;;;10338393;28;20494;-80
2021/11/23 02:32:02;;;;;;;6.70;4.07;;;;;;;;;;10312586;28;20499;-80
2021/11/23 02:37:02;;;;;;;6.63;3.75;;;;;;;;;;10332466;28;20106;-79
2021/11/23 02:42:03;;;;;;;5.45;3.75;;;;;;;;;;10331449;28;20027;-79
2021/11/23 02:47:04;;;;;;;5.20;3.72;;;;;;;;;;10323889;28;20033;-79
2021/11/23 02:52:08;;;;;;;4.03;3.50;;;;;;;;;;10326408;28;20449;-79
2021/11/23 02:57:08;;;;;;;5.68;3.60;;;;;;;;;;10328487;28;20057;-79
2021/11/23 03:02:09;;;;;;;5.20;3.47;;;;;;;;;;10334680;28;20054;-80
2021/11/23 03:07:12;;;;;;;5.03;3.97;;;;;;;;;;10327363;28;20445;-79
2021/11/23 03:12:31;;;;;;;3.92;3.42;;;;;;;;;;10336323;28;20157;-79
2021/11/23 03:17:32;;;;;;;7.50;3.30;;;;;;;;;;10327120;28;20354;-79
2021/11/23 03:22:32;;;;;;;11.07;3.65;;;;;;;;;;10336223;28;20038;-79
2021/11/23 03:27:33;;;;;;;4.55;3.42;;;;;;;;;;10326446;28;20044;-79
2021/11/23 03:32:34;;;;;;;3.83;2.72;;;;;;;;;;10334870;28;20038;-80
2021/11/23 03:37:34;;;;;;;5.05;3.15;;;;;;;;;;10326882;28;20388;-79
2021/11/23 03:42:35;;;;;;;4.82;3.30;;;;;;;;;;10335159;28;20030;-79
2021/11/23 03:47:36;;;;;;;4.65;3.38;;;;;;;;;;10327855;28;20113;-79
2021/11/23 03:52:36;;;;;;;3.45;2.90;;;;;;;;;;10334833;28;20040;-79
2021/11/23 03:57:37;;;;;;;6.30;3.03;;;;;;;;;;10306905;28;20035;-80
2021/11/23 04:02:38;;;;;;;3.30;2.80;;;;;;;;;;10315035;28;20118;-79
2021/11/23 04:07:40;;;;;;;5.22;2.95;;;;;;;;;;10323641;28;20433;-78
2021/11/23 04:12:41;;;;;;;3.88;2.75;;;;;;;;;;10327544;28;20045;-80
2021/11/23 04:17:42;;;;;;;3.53;3.20;;;;;;;;;;10321330;28;20376;-80
2021/11/23 04:22:43;;;;;;;4.30;3.20;;;;;;;;;;10333548;28;20085;-80
2021/11/23 04:27:43;;;;;;;4.68;2.67;;;;;;;;;;10315107;28;20081;-80
2021/11/23 04:32:44;;;;;;;4.80;3.42;;;;;;;;;;10293889;28;20026;-79
2021/11/23 04:37:45;;;;;;;12.50;3.50;;;;;;;;;;10293191;28;20528;-80
2021/11/23 04:42:45;;;;;;;4.45;3.38;;;;;;;;;;10292764;28;20453;-79
2021/11/23 04:47:46;;;;;;;4.45;2.70;;;;;;;;;;10292677;28;20617;-80
2021/11/23 04:52:47;;;;;;;5.55;3.20;;;;;;;;;;10293965;28;20081;-79
2021/11/23 04:57:47;;;;;;;4.15;2.70;;;;;;;;;;10293106;28;20035;-79
2021/11/23 05:02:48;;;;;;;2.78;2.50;;;;;;;;;;10292454;28;20034;-79
2021/11/23 05:07:48;;;;;;;3.67;2.77;;;;;;;;;;10292811;28;20054;-79
2021/11/23 05:12:49;;;;;;;3.63;2.93;;;;;;;;;;10291921;28;20807;-79
2021/11/23 05:17:49;;;;;;;6.32;2.90;;;;;;;;;;10292348;28;20437;-79
2021/11/23 05:22:50;;;;;;;6.45;3.00;;;;;;;;;;10299755;28;20037;-79
2021/11/23 05:27:50;;;;;;;3.50;2.90;;;;;;;;;;10294270;28;20098;-79
2021/11/23 05:32:52;;;;;;;2.63;2.38;;;;;;;;;;10259662;28;20552;-80
2021/11/23 05:37:53;;;;;;;4.03;2.97;;;;;;;;;;10259113;28;20027;-79
2021/11/23 05:42:53;;;;;;;3.83;2.47;;;;;;;;;;10259182;28;20031;-79
2021/11/23 05:47:53;;;;;;;2.75;2.53;;;;;;;;;;10258620;28;20445;-80
2021/11/23 05:52:54;;;;;;;4.50;3.07;;;;;;;;;;10257803;28;20066;-80
2021/11/23 05:57:54;;;;;;;2.63;2.30;;;;;;;;;;10259444;28;20430;-78
2021/11/23 06:02:55;;;;;;;2.83;2.42;;;;;;;;;;10258537;28;20066;-79
2021/11/23 06:07:55;;;;;;;3.92;2.72;;;;;;;;;;10258929;28;20449;-79
2021/11/23 06:12:56;;;;;;;3.33;2.90;;;;;;;;;;10258452;28;20059;-79
2021/11/23 06:18:02;;;;;;;3.88;2.97;;;;;;;;;;10278844;28;20086;-79
2021/11/23 06:23:03;;;;;;;3.85;3.03;;;;;;;;;;10277844;28;20065;-78
2021/11/23 06:28:04;;;;;;;3.53;2.83;;;;;;;;;;10290798;28;20436;-78
2021/11/23 06:33:05;;;;;;;4.32;3.05;;;;;;;;;;10258869;28;20026;-78
2021/11/23 06:38:06;;;;;;;6.78;2.90;;;;;;;;;;10271281;28;20031;-79
2021/11/23 06:43:07;;;;;;;6.05;2.75;;;;;;;;;;10275257;28;20025;-81
2021/11/23 06:48:09;;;;;;;6.78;2.67;;;;;;;;;;10273995;28;20053;-81
2021/11/23 06:53:11;;;;;;;4.13;2.67;;;;;;;;;;10255396;28;20035;-81
2021/11/23 06:58:11;;;;;;;5.30;2.70;;;;;;;;;;10245018;28;20046;-82
2021/11/23 07:03:12;;;;;;;3.40;2.50;;;;;;;;;;10254752;28;20043;-79
2021/11/23 07:08:13;;;;;;;4.13;3.00;;;;;;;;;;10255953;28;20031;-86
2021/11/23 07:13:14;;;;;;;5.30;2.90;;;;;;;;;;10255405;28;20468;-79
2021/11/23 07:18:14;;;;;;;11.00;2.95;;;;;;;;;;10255936;28;20035;-81
2021/11/23 07:23:15;;;;;;;18.52;3.47;;;;;;;;;;10255031;28;20039;-81
2021/11/23 07:28:15;;;;;;;8.57;2.67;;;;;;;;;;10266089;28;20053;-82
2021/11/23 07:33:16;;;;;;;12.80;2.90;;;;;;;;;;10301503;28;20412;-82
2021/11/23 07:38:16;;;;;;;8.57;3.00;;;;;;;;;;10328892;28;20030;-82
2021/11/23 07:43:16;;;;;;;6.63;2.97;;;;;;;;;;10313686;28;20464;-82
2021/11/23 07:48:17;;;;;;;5.00;2.90;;;;;;;;;;10314134;28;20063;-82
2021/11/23 07:53:18;;;;;;;8.40;3.23;;;;;;;;;;10284373;28;20038;-81
2021/11/23 07:58:19;;;;;;;6.18;2.75;;;;;;;;;;10276430;28;20457;-81
2021/11/23 08:03:19;;;;;;;13.93;3.13;;;;;;;;;;10293849;28;20480;-83
2021/11/23 08:08:20;;;;;;;10.07;3.03;;;;;;;;;;10293689;28;20031;-82
2021/11/23 08:13:20;;;;;;;6.20;2.40;;;;;;;;;;10293107;28;20499;-82
2021/11/23 08:18:22;;;;;;;11.63;2.50;;;;;;;;;;10294075;28;20508;-82
2021/11/23 08:23:22;;;;;;;6.93;2.83;;;;;;;;;;10275747;28;20050;-82
2021/11/23 08:28:25;;;;;;;5.07;2.90;;;;;;;;;;10301855;28;20468;-82
2021/11/23 08:33:25;;;;;;;6.93;2.67;;;;;;;;;;10301539;28;20795;-81
2021/11/23 08:38:26;;;;;;;3.65;2.50;;;;;;;;;;10334032;28;20026;-82
2021/11/23 08:43:26;;;;;;;5.10;2.73;;;;;;;;;;10321937;28;20031;-82
2021/11/23 08:48:27;;;;;;;3.47;2.33;;;;;;;;;;10323334;28;20467;-81
2021/11/23 08:53:27;;;;;;;9.03;2.80;;;;;;;;;;10320370;28;20030;-81
2021/11/23 08:58:28;;;;;;;4.80;2.90;;;;;;;;;;10341583;28;20444;-81
2021/11/23 09:03:28;;;;;;;5.55;2.65;;;;;;;;;;10279034;28;20508;-81
2021/11/23 09:08:28;;;;;;;7.40;2.80;;;;;;;;;;10340419;28;20477;-81
2021/11/23 09:13:29;;;;;;;6.65;2.42;;;;;;;;;;10339123;28;20436;-81
2021/11/23 09:18:29;;;;;;;3.80;2.57;;;;;;;;;;10340617;28;20112;-82
2021/11/23 09:23:30;;;;;;;6.30;2.67;;;;;;;;;;10339708;28;20472;-82
2021/11/23 09:28:30;;;;;;;6.00;2.38;;;;;;;;;;10340510;28;20112;-82
2021/11/23 09:33:31;;;;;;;4.60;2.40;;;;;;;;;;10339531;28;20069;-82
2021/11/23 09:38:31;;;;;;;6.10;2.75;;;;;;;;;;10339898;28;20847;-81
2021/11/23 09:43:33;;;;;;;5.15;2.15;;;;;;;;;;10331458;28;20035;-80
2021/11/23 09:48:34;;;;;;;4.47;2.42;;;;;;;;;;10320480;28;20018;-81
2021/11/23 09:53:34;;;;;;;4.22;2.30;;;;;;;;;;10336188;28;20039;-81
2021/11/23 09:58:34;;;;;;;3.30;2.40;;;;;;;;;;10303805;28;20067;-81
2021/11/23 10:03:35;;;;;;;4.60;2.70;;;;;;;;;;10339350;28;20031;-80
2021/11/23 10:08:37;;;;;;;5.57;2.60;;;;;;;;;;10337058;28;20768;-81
2021/11/23 10:13:46;;;;;;;5.28;2.20;;;;;;;;;;10338642;28;20109;-81
2021/11/23 10:18:50;;;;;;;8.65;2.47;;;;;;;;;;10325022;28;20027;-82
2021/11/23 10:23:55;;;;;;;5.82;2.42;;;;;;;;;;10325367;28;20100;-82
2021/11/23 10:29:01;;;;;;;10.88;2.70;;;;;;;;;;10337615;28;20046;-82
2021/11/23 10:34:04;;;;;;;5.00;2.13;;;;;;;;;;10325310;28;20494;-81
2021/11/23 10:39:14;;;;;;;4.30;2.38;;;;;;;;;;10324347;28;20045;-82
2021/11/23 10:44:20;;;;;;;4.90;2.50;;;;;;;;;;10323579;28;20030;-82
2021/11/23 10:49:28;;;;;;;3.42;2.17;;;;;;;;;;10320752;28;20053;-82
2021/11/23 10:54:34;;;;;;;3.17;1.80;;;;;;;;;;10338328;28;20034;-82
2021/11/23 10:59:36;;;;;;;4.60;2.40;;;;;;;;;;10323782;28;20093;-82
2021/11/23 11:04:43;;;;;;;3.58;2.22;;;;;;;;;;10326882;28;20065;-82
2021/11/23 11:09:45;;;;;;;4.93;2.10;;;;;;;;;;10334092;28;20038;-82
2021/11/23 11:14:46;;;;;;;3.90;2.38;;;;;;;;;;10318861;28;20027;-81
2021/11/23 11:19:50;;;;;;;2.65;2.20;;;;;;;;;;10319125;28;20057;-80
2021/11/23 11:25:07;;;;;;;3.53;2.17;;;;;;;;;;10327567;28;20026;-81
2021/11/23 11:30:30;;;;;;;3.28;1.77;;;;;;;;;;10294995;28;20119;-82
2021/11/23 11:35:49;;;;;;;3.28;2.15;;;;;;;;;;10293003;28;20039;-82
2021/11/23 11:40:49;;;;;;;4.03;2.28;;;;;;;;;;10282233;28;20023;-81
2021/11/23 11:45:51;;;;;;;2.77;1.80;;;;;;;;;;10270032;28;20046;-82
2021/11/23 11:51:00;;;;;;;3.60;2.05;;;;;;;;;;10289274;28;20504;-82
2021/11/23 11:56:01;;;;;;;4.97;1.80;;;;;;;;;;10291277;28;20531;-82
2021/11/23 12:01:32;;;;;;;3.15;2.22;;;;;;;;;;10293201;28;20066;-82
2021/11/23 12:12:01;;;;;;;6.32;1.83;;;;;;;;;;10272712;28;20049;-82
2021/11/23 12:17:07;;;;;;;4.15;2.00;;;;;;;;;;10292107;28;20081;-81
2021/11/23 12:22:19;;;;;;;2.30;1.73;;;;;;;;;;10293939;28;20069;-81
2021/11/23 12:27:20;;;;;;;3.38;2.00;;;;;;;;;;10373788;23;20040;-81
2021/11/23 12:32:30;;;;;;;2.22;1.58;;;;;;;;;;10293402;28;20456;-81
2021/11/23 12:37:36;;;;;;;2.33;1.90;;;;;;;;;;10293737;28;20031;-82
2021/11/23 12:42:41;;;;;;;2.30;1.85;;;;;;;;;;10293346;28;20031;-81
2021/11/23 12:47:41;;;;;;;3.10;2.17;;;;;;;;;;10292752;28;20362;-82
2021/11/23 12:52:42;;;;;;;1.92;1.63;;;;;;;;;;10293139;28;20039;-82
2021/11/23 12:57:51;;;;;;;2.78;1.70;;;;;;;;;;10283753;28;20035;-82
2021/11/23 13:02:51;;;;;;;;;;;;;;;;;;10292889;28;20118;-82
2021/11/23 13:07:53;;;;;;;2.42;2.00;;;;;;;;;;10290157;28;20024;-82
2021/11/23 13:12:58;;;;;;;4.22;1.95;;;;;;;;;;10288223;28;20133;-82
2021/11/23 13:18:06;;;;;;;3.42;1.92;;;;;;;;;;10290527;28;20031;-82
2021/11/23 13:23:16;;;;;;;4.00;2.05;;;;;;;;;;10291746;28;20064;-82
2021/11/23 13:28:17;;;;;;;1.92;1.70;;;;;;;;;;10285799;28;20114;-83
2021/11/23 13:33:21;;;;;;;3.38;1.77;;;;;;;;;;10277319;28;20093;-83
2021/11/23 13:38:29;;;;;;;3.92;1.85;;;;;;;;;;10266225;28;20031;-83
2021/11/23 13:43:37;;;;;;;2.85;1.73;;;;;;;;;;10289455;28;20069;-83
2021/11/23 13:48:39;;;;;;;2.08;1.63;;;;;;;;;;10282758;28;20062;-82
2021/11/23 13:53:59;;;;;;;3.13;1.98;;;;;;;;;;10281930;28;20038;-83
2021/11/23 13:59:04;;;;;;;5.32;1.88;;;;;;;;;;10287033;28;20507;-84
2021/11/23 14:04:24;;;;;;;1.80;1.58;;;;;;;;;;10287543;28;20417;-83
2021/11/23 14:09:25;;;;;;;6.70;1.88;;;;;;;;;;10297472;28;20416;-83
2021/11/23 14:14:25;;;;;;;4.30;1.85;;;;;;;;;;10292629;28;20031;-81
2021/11/23 14:19:26;;;;;;;4.32;1.70;;;;;;;;;;10285223;28;20039;-82
2021/11/23 14:24:37;;;;;;;3.23;1.70;;;;;;;;;;10291188;28;20378;-83
2021/11/23 14:29:37;;;;;;;3.60;1.92;;;;;;;;;;10289391;28;20465;-82
2021/11/23 14:34:38;;;;;;;1.67;1.42;;;;;;;;;;10295423;28;20031;-82
2021/11/23 14:39:38;;;;;;;2.43;1.70;;;;;;;;;;10296838;28;20058;-83
2021/11/23 14:44:38;;;;;;;2.53;1.87;;;;;;;;;;10295962;28;20772;-79
2021/11/23 14:49:39;;;;;;;4.20;1.90;;;;;;;;;;10295631;28;20460;-80
2021/11/23 14:54:39;;;;;;;2.13;1.57;;;;;;;;;;10282376;28;20042;-81
2021/11/23 14:59:40;;;;;;;2.38;1.75;;;;;;;;;;10292883;28;20101;-81
2021/11/23 15:04:40;;;;;;;3.20;1.70;;;;;;;;;;10294339;28;20026;-80
2021/11/23 15:09:42;;;;;;;1.80;1.60;;;;;;;;;;10294148;28;20066;-80
2021/11/23 15:14:42;;;;;;;1.77;1.50;;;;;;;;;;10293704;28;20053;-82
2021/11/23 15:19:43;;;;;;;5.00;1.60;;;;;;;;;;10273183;28;20037;-82
2021/11/23 15:24:43;;;;;;;2.45;1.90;;;;;;;;;;10298526;28;20771;-82
2021/11/23 15:29:44;;;;;;;6.27;1.87;;;;;;;;;;10293763;28;20042;-84
2021/11/23 15:34:44;;;;;;;4.00;2.10;;;;;;;;;;10292009;28;20444;-83
2021/11/23 15:39:44;;;;;;;1.83;1.52;;;;;;;;;;10293328;28;20031;-83
2021/11/23 15:44:46;;;;;;;2.27;2.07;;;;;;;;;;10275590;28;20524;-81
2021/11/23 15:49:47;;;;;;;2.13;1.50;;;;;;;;;;10291732;28;20904;-82
2021/11/23 15:54:48;;;;;;;3.00;1.60;;;;;;;;;;10296422;28;20030;-82
2021/11/23 15:59:50;;;;;;;2.83;1.60;;;;;;;;;;10285453;28;20023;-83
2021/11/23 16:04:51;;;;;;;1.58;1.48;;;;;;;;;;10289615;28;20063;-82
2021/11/23 16:09:52;;;;;;;3.53;1.77;;;;;;;;;;10288247;28;20058;-82
2021/11/23 16:14:52;;;;;;;3.10;1.65;;;;;;;;;;10283848;28;20409;-82
2021/11/23 16:19:53;;;;;;;2.83;1.53;;;;;;;;;;10289940;28;20113;-82
2021/11/23 16:24:54;;;;;;;5.25;1.80;;;;;;;;;;10277275;28;20458;-83
2021/11/23 16:29:56;;;;;;;2.80;1.98;;;;;;;;;;10270735;28;20055;-83
2021/11/23 16:34:56;;;;;;;5.25;2.22;;;;;;;;;;10252056;28;20063;-83
2021/11/23 16:39:58;;;;;;;6.30;2.90;;;;;;;;;;10248446;28;20107;-82
2021/11/23 16:44:59;;;;;;;7.13;2.20;;;;;;;;;;10247526;28;21043;-82
2021/11/23 16:50:00;;;;;;;3.58;1.98;;;;;;;;;;10253415;28;20226;-81
2021/11/23 16:55:01;;;;;;;6.85;1.77;;;;;;;;;;10247558;28;20039;-82
2021/11/23 17:00:07;;;;;;;4.90;2.15;;;;;;;;;;10243332;28;20031;-82
2021/11/23 17:05:08;;;;;;;3.67;2.22;;;;;;;;;;10234122;28;20039;-81
2021/11/23 17:10:09;;;;;;;4.97;2.08;;;;;;;;;;10251863;28;20129;-81
2021/11/23 17:15:09;;;;;;;3.80;2.42;;;;;;;;;;10239455;28;20512;-82
2021/11/23 17:20:13;;;;;;;8.23;2.58;;;;;;;;;;10249223;28;20038;-82
2021/11/23 17:25:14;;;;;;;3.08;2.20;;;;;;;;;;10250794;28;20039;-82
2021/11/23 17:30:15;;;;;;;5.50;2.65;;;;;;;;;;10277637;28;20356;-83
2021/11/23 17:35:15;;;;;;;4.45;2.35;;;;;;;;;;10268839;28;20039;-84
2021/11/23 17:40:16;;;;;;;4.00;2.55;;;;;;;;;;10282366;28;20054;-84
2021/11/23 17:45:16;;;;;;;3.80;2.92;;;;;;;;;;10297476;28;20038;-84
2021/11/23 17:50:20;;;;;;;4.30;2.60;;;;;;;;;;10292696;28;20453;-83
2021/11/23 17:55:24;;;;;;;6.40;3.10;;;;;;;;;;10294483;28;20046;-83
2021/11/23 18:00:28;;;;;;;8.02;3.15;;;;;;;;;;10297267;28;20037;-81
2021/11/23 18:05:29;;;;;;;9.23;3.22;;;;;;;;;;10297900;28;20516;-82
2021/11/23 18:10:30;;;;;;;6.75;3.42;;;;;;;;;;10289375;28;20062;-82
2021/11/23 18:15:31;;;;;;;5.07;3.75;;;;;;;;;;10297591;28;20477;-82
2021/11/23 18:20:44;;;;;;;5.95;3.83;;;;;;;;;;10296307;28;20042;-81
2021/11/23 18:25:46;;;;;;;7.07;3.78;;;;;;;;;;10286814;28;20037;-83
2021/11/23 18:30:47;;;;;;;7.18;4.00;;;;;;;;;;10270277;28;20070;-82
2021/11/23 18:35:48;;;;;;;8.90;4.22;;;;;;;;;;10250976;28;20083;-84
2021/11/23 18:40:50;;;;;;;6.35;3.85;;;;;;;;;;10246196;28;20023;-82
2021/11/23 18:45:50;;;;;;;9.35;4.25;;;;;;;;;;10247056;28;20027;-84
2021/11/23 18:50:51;;;;;;;10.33;3.87;;;;;;;;;;10250699;28;20031;-83
2021/11/23 18:55:52;;;;;;;10.82;4.18;;;;;;;;;;10252167;28;21122;-84
2021/11/23 19:00:52;;;;;;;4.83;3.53;;;;;;;;;;10233218;28;20023;-85
2021/11/23 19:05:52;;;;;;;8.07;3.95;;;;;;;;;;10233331;28;20453;-84
2021/11/23 19:10:53;;;;;;;17.10;5.15;;;;;;;;;;10255287;28;20059;-84
2021/11/23 19:15:55;;;;;;;10.25;4.53;;;;;;;;;;10253391;28;20035;-83
2021/11/23 19:20:56;;;;;;;8.52;4.05;;;;;;;;;;10253896;28;20114;-83
2021/11/23 19:25:56;;;;;;;16.83;4.50;;;;;;;;;;10259524;28;20481;-83
2021/11/23 19:30:57;;;;;;;9.20;4.60;;;;;;;;;;10256119;28;20484;-83
2021/11/23 19:35:57;;;;;;;11.48;4.72;;;;;;;;;;10240349;28;20528;-84
2021/11/23 19:40:58;;;;;;;8.07;4.65;;;;;;;;;;10241608;28;20460;-84
2021/11/23 19:45:59;;;;;;;7.38;4.07;;;;;;;;;;10240332;28;20110;-83
2021/11/23 19:50:59;;;;;;;7.95;4.43;;;;;;;;;;10234959;28;20042;-82
2021/11/23 19:55:59;;;;;;;15.30;4.63;;;;;;;;;;10256900;28;20382;-82
2021/11/23 20:01:00;;;;;;;8.07;5.07;;;;;;;;;;10256890;28;20042;-84
2021/11/23 20:06:00;;;;;;;17.83;5.60;;;;;;;;;;10249096;28;20037;-83
2021/11/23 20:11:00;;;;;;;13.83;5.57;;;;;;;;;;10260040;28;20434;-83
2021/11/23 20:16:01;;;;;;;9.20;4.80;;;;;;;;;;10243585;28;20474;-84
2021/11/23 20:21:02;;;;;;;9.82;4.68;;;;;;;;;;10258413;28;20461;-83
2021/11/23 20:26:04;;;;;;;12.40;4.88;;;;;;;;;;10257966;28;20110;-83
2021/11/23 20:31:05;;;;;;;9.02;5.18;;;;;;;;;;10257182;28;20046;-83
2021/11/23 20:36:08;;;;;;;10.57;5.45;;;;;;;;;;10240158;28;20042;-84
2021/11/23 20:41:09;;;;;;;11.05;5.28;;;;;;;;;;10223822;28;20028;-83
2021/11/23 20:46:09;;;;;;;10.98;5.32;;;;;;;;;;10237655;28;20039;-83
2021/11/23 20:51:09;;;;;;;10.50;5.93;;;;;;;;;;10248330;28;20048;-84
2021/11/23 20:56:13;;;;;;;21.07;6.30;;;;;;;;;;10239098;28;21016;-84
2021/11/23 21:01:14;;;;;;;9.70;5.28;;;;;;;;;;10267222;28;20492;-83
2021/11/23 21:06:14;;;;;;;11.38;5.70;;;;;;;;;;10263499;28;20027;-83
2021/11/23 21:11:15;;;;;;;11.73;5.90;;;;;;;;;;10264110;28;20038;-83
2021/11/23 21:16:16;;;;;;;19.83;5.22;;;;;;;;;;10276562;28;20499;-85
2021/11/23 21:21:16;;;;;;;12.07;5.85;;;;;;;;;;10242158;28;20085;-84
2021/11/23 21:26:16;;;;;;;13.57;5.68;;;;;;;;;;10239919;28;20036;-84
2021/11/23 21:31:18;;;;;;;12.52;5.40;;;;;;;;;;10264851;28;20074;-84
2021/11/23 21:36:18;;;;;;;8.90;5.53;;;;;;;;;;10282896;28;20039;-84
2021/11/23 21:41:19;;;;;;;10.03;6.07;;;;;;;;;;10298054;28;20034;-84
2021/11/23 21:46:29;;;;;;;14.40;5.78;;;;;;;;;;10297138;28;20473;-83
2021/11/23 21:51:30;;;;;;;12.63;5.95;;;;;;;;;;10298827;28;20034;-84
2021/11/23 21:56:30;;;;;;;21.40;6.88;;;;;;;;;;10299547;28;20058;-88
2021/11/23 22:01:31;;;;;;;24.83;6.77;;;;;;;;;;10290190;28;20096;-85
2021/11/23 22:06:31;;;;;;;13.50;6.45;;;;;;;;;;10261578;28;20438;-86
2021/11/23 22:11:32;;;;;;;17.03;6.47;;;;;;;;;;10279658;28;20041;-86
2021/11/23 22:16:32;;;;;;;15.13;6.27;;;;;;;;;;10296858;28;20819;-86
2021/11/23 22:21:33;;;;;;;13.67;6.40;;;;;;;;;;10295676;28;20548;-82
2021/11/23 22:26:33;;;;;;;16.58;6.93;;;;;;;;;;10295037;28;20035;-82
2021/11/23 22:31:34;;;;;;;10.63;6.20;;;;;;;;;;10286425;28;20119;-82
2021/11/23 22:36:34;;;;;;;9.67;5.53;;;;;;;;;;10291179;28;21049;-82
2021/11/23 22:41:35;;;;;;;11.55;6.65;;;;;;;;;;10295379;28;20461;-82
2021/11/23 22:46:35;;;;;;;25.73;7.95;;;;;;;;;;10296711;28;20492;-85
2021/11/23 22:51:36;;;;;;;26.20;7.70;;;;;;;;;;10297536;28;20039;-84
2021/11/23 22:56:36;;;;;;;24.88;7.57;;;;;;;;;;10296603;28;20504;-84
2021/11/23 23:01:37;;;;;;;17.30;6.68;;;;;;;;;;10296444;28;20031;-85
2021/11/23 23:06:37;;;;;;;19.67;7.28;;;;;;;;;;10295908;28;20031;-85
2021/11/23 23:11:38;;;;;;;28.27;6.70;;;;;;;;;;10295228;28;20436;-86
2021/11/23 23:16:39;;;;;;;19.05;6.68;;;;;;;;;;10294846;28;20033;-85
2021/11/23 23:21:40;;;;;;;15.45;6.53;;;;;;;;;;10294035;28;20023;-86
2021/11/23 23:26:41;;;;;;;18.70;6.47;;;;;;;;;;10293135;28;20026;-86
2021/11/23 23:31:41;;;;;;;16.55;6.78;;;;;;;;;;10294979;28;20047;-85
2021/11/23 23:36:42;;;;;;;20.15;6.72;;;;;;;;;;10294832;28;20035;-86
2021/11/23 23:41:42;;;;;;;11.43;6.18;;;;;;;;;;10293863;28;20138;-82
2021/11/23 23:46:42;;;;;;;14.35;6.60;;;;;;;;;;10288618;28;20023;-82
2021/11/23 23:51:43;;;;;;;12.57;6.28;;;;;;;;;;10269681;28;20039;-83
2021/11/23 23:56:43;;;;;;;12.80;7.35;;;;;;;;;;10262130;28;20027;-81
